Time;durP1;ratioP1;P1;durP2;ratioP2;P2;SDS_P1;SDS_P2;PMS_P1;PMS_P2;Temp;Humidity;BMP_temperature;BMP_pressure;BME280_temperature;BME280_humidity;BME280_pressure;Samples;Min_cycle;Max_cycle;Signal;HPM_P1;HPM_P2
2021/09/01 00:00:22;;;;;;;10.15;6.40;;;;;;;;;;5020317;28;20071;-68
2021/09/01 00:02:47;;;;;;;11.50;6.40;;;;;;;;;;5026507;28;20324;-68
2021/09/01 00:05:12;;;;;;;16.67;7.25;;;;;;;;;;5029916;28;20403;-68
2021/09/01 00:07:38;;;;;;;10.60;6.22;;;;;;;;;;5025464;28;20045;-68
2021/09/01 00:10:04;;;;;;;9.43;5.82;;;;;;;;;;5025485;28;20394;-69
2021/09/01 00:12:29;;;;;;;10.48;6.80;;;;;;;;;;5026476;28;20855;-68
2021/09/01 00:14:55;;;;;;;11.30;6.65;;;;;;;;;;5029638;28;20117;-68
2021/09/01 00:17:20;;;;;;;13.60;7.13;;;;;;;;;;5022826;28;20838;-68
2021/09/01 00:19:45;;;;;;;11.15;6.60;;;;;;;;;;5024884;28;20410;-68
2021/09/01 00:22:10;;;;;;;10.50;6.67;;;;;;;;;;5022716;28;20029;-68
2021/09/01 00:24:35;;;;;;;11.60;6.38;;;;;;;;;;5028169;28;20760;-68
2021/09/01 00:27:01;;;;;;;11.40;7.00;;;;;;;;;;5024835;28;20037;-68
2021/09/01 00:29:26;;;;;;;9.90;6.18;;;;;;;;;;5022616;28;20059;-69
2021/09/01 00:31:51;;;;;;;10.70;6.60;;;;;;;;;;5025109;28;20420;-69
2021/09/01 00:34:16;;;;;;;11.00;6.88;;;;;;;;;;5022478;28;20040;-69
2021/09/01 00:36:42;;;;;;;13.27;7.28;;;;;;;;;;5021544;28;20029;-69
2021/09/01 00:39:07;;;;;;;13.45;7.35;;;;;;;;;;5022903;28;20048;-68
2021/09/01 00:41:32;;;;;;;14.70;7.05;;;;;;;;;;5018239;28;20122;-68
2021/09/01 00:43:58;;;;;;;16.58;7.28;;;;;;;;;;5026514;28;20108;-69
2021/09/01 00:46:23;;;;;;;13.82;7.47;;;;;;;;;;5022188;28;20498;-67
2021/09/01 00:48:53;;;;;;;15.13;7.20;;;;;;;;;;5027495;28;20025;-68
2021/09/01 00:51:18;;;;;;;12.55;7.80;;;;;;;;;;5026062;28;20392;-69
2021/09/01 00:53:45;;;;;;;11.60;7.72;;;;;;;;;;5020298;28;20030;-69
2021/09/01 00:56:17;;;;;;;12.80;7.15;;;;;;;;;;5021351;28;20071;-68
2021/09/01 00:58:43;;;;;;;12.77;8.13;;;;;;;;;;5028399;28;20481;-69
2021/09/01 01:01:17;;;;;;;14.20;7.63;;;;;;;;;;5023321;28;20026;-69
2021/09/01 01:03:51;;;;;;;11.05;7.28;;;;;;;;;;5014946;28;20018;-68
2021/09/01 01:06:19;;;;;;;11.98;7.40;;;;;;;;;;5020386;28;20560;-68
2021/09/01 01:08:44;;;;;;;10.73;7.20;;;;;;;;;;5019655;28;20057;-68
2021/09/01 01:11:10;;;;;;;13.10;7.78;;;;;;;;;;5019108;28;20451;-69
2021/09/01 01:13:35;;;;;;;15.10;7.90;;;;;;;;;;5023342;28;20373;-69
2021/09/01 01:16:00;;;;;;;18.80;8.07;;;;;;;;;;5024742;28;20034;-68
2021/09/01 01:18:26;;;;;;;12.50;7.60;;;;;;;;;;5027343;28;20342;-68
2021/09/01 01:20:51;;;;;;;13.13;7.80;;;;;;;;;;5021914;28;20750;-68
2021/09/01 01:23:17;;;;;;;11.82;7.63;;;;;;;;;;5015904;28;20312;-67
2021/09/01 01:25:43;;;;;;;13.90;8.23;;;;;;;;;;5019537;28;20026;-68
2021/09/01 01:28:08;;;;;;;14.02;8.48;;;;;;;;;;5026126;28;20029;-67
2021/09/01 01:30:34;;;;;;;13.50;7.45;;;;;;;;;;5028171;28;20057;-67
2021/09/01 01:32:59;;;;;;;13.18;7.80;;;;;;;;;;5020494;28;20880;-68
2021/09/01 01:35:30;;;;;;;15.85;8.50;;;;;;;;;;5021161;28;20026;-68
2021/09/01 01:37:57;;;;;;;13.18;8.07;;;;;;;;;;5019136;28;20052;-68
2021/09/01 01:40:23;;;;;;;13.30;8.65;;;;;;;;;;5022512;28;20045;-68
2021/09/01 01:42:51;;;;;;;14.82;8.25;;;;;;;;;;5021219;28;20049;-68
2021/09/01 01:45:16;;;;;;;15.45;8.40;;;;;;;;;;5029343;28;20432;-68
2021/09/01 01:47:41;;;;;;;14.52;8.20;;;;;;;;;;5030455;28;20025;-69
2021/09/01 01:50:06;;;;;;;16.85;9.23;;;;;;;;;;5031352;28;20024;-68
2021/09/01 01:52:32;;;;;;;15.23;8.30;;;;;;;;;;5029408;28;20030;-69
2021/09/01 01:54:57;;;;;;;13.27;8.27;;;;;;;;;;5029515;28;20496;-67
2021/09/01 01:57:22;;;;;;;12.07;8.13;;;;;;;;;;5024915;28;20457;-68
2021/09/01 01:59:47;;;;;;;15.13;8.95;;;;;;;;;;5032043;28;20040;-68
2021/09/01 02:02:12;;;;;;;13.10;7.55;;;;;;;;;;5024968;28;20018;-68
2021/09/01 02:04:37;;;;;;;12.70;7.95;;;;;;;;;;5026776;28;20028;-67
2021/09/01 02:07:03;;;;;;;17.55;8.70;;;;;;;;;;5030113;28;20057;-68
2021/09/01 02:09:28;;;;;;;15.95;8.65;;;;;;;;;;5027072;28;20037;-68
2021/09/01 02:11:53;;;;;;;14.53;9.33;;;;;;;;;;5023878;28;20045;-68
2021/09/01 02:14:18;;;;;;;16.05;8.95;;;;;;;;;;5028698;28;20345;-68
2021/09/01 02:16:43;;;;;;;14.63;9.10;;;;;;;;;;5028808;28;20021;-68
2021/09/01 02:19:11;;;;;;;15.70;9.60;;;;;;;;;;5030947;28;20116;-68
2021/09/01 02:21:37;;;;;;;19.55;9.40;;;;;;;;;;5035764;28;20276;-68
2021/09/01 02:24:03;;;;;;;16.75;9.48;;;;;;;;;;5025405;28;20852;-67
2021/09/01 02:26:28;;;;;;;19.20;10.73;;;;;;;;;;5031104;28;20021;-68
2021/09/01 02:28:53;;;;;;;17.52;9.55;;;;;;;;;;5020373;28;20055;-66
2021/09/01 02:31:19;;;;;;;16.15;9.15;;;;;;;;;;5029356;28;20511;-67
2021/09/01 02:33:44;;;;;;;14.70;8.77;;;;;;;;;;5027753;28;20037;-68
2021/09/01 02:36:09;;;;;;;21.02;9.98;;;;;;;;;;5022854;28;20025;-67
2021/09/01 02:38:34;;;;;;;17.58;9.70;;;;;;;;;;5026944;28;20037;-68
2021/09/01 02:40:59;;;;;;;19.45;10.77;;;;;;;;;;5027267;28;20170;-68
2021/09/01 02:43:24;;;;;;;18.10;9.93;;;;;;;;;;5031737;28;20032;-67
2021/09/01 02:45:50;;;;;;;16.08;9.63;;;;;;;;;;5023337;28;20017;-68
2021/09/01 02:48:15;;;;;;;16.13;8.97;;;;;;;;;;5027574;28;20049;-68
2021/09/01 02:50:40;;;;;;;14.05;8.90;;;;;;;;;;5021745;28;20276;-68
2021/09/01 02:53:06;;;;;;;16.92;9.93;;;;;;;;;;5020986;28;20056;-68
2021/09/01 02:55:31;;;;;;;17.70;10.30;;;;;;;;;;5025683;28;20032;-67
2021/09/01 02:57:56;;;;;;;18.13;9.52;;;;;;;;;;5027872;28;20443;-68
2021/09/01 03:00:21;;;;;;;18.27;10.30;;;;;;;;;;5026389;28;20280;-68
2021/09/01 03:02:46;;;;;;;20.42;10.57;;;;;;;;;;5026474;28;20266;-68
2021/09/01 03:05:11;;;;;;;19.55;10.52;;;;;;;;;;5029884;28;20049;-68
2021/09/01 03:07:37;;;;;;;17.73;10.65;;;;;;;;;;5019912;28;20025;-67
2021/09/01 03:10:02;;;;;;;17.00;10.48;;;;;;;;;;5030462;28;20026;-68
2021/09/01 03:12:27;;;;;;;21.67;10.60;;;;;;;;;;5022490;28;20181;-68
2021/09/01 03:14:52;;;;;;;18.40;9.77;;;;;;;;;;5027090;28;20025;-68
2021/09/01 03:17:17;;;;;;;18.88;10.38;;;;;;;;;;5026234;28;20052;-68
2021/09/01 03:19:43;;;;;;;15.73;9.65;;;;;;;;;;5028531;28;20040;-69
2021/09/01 03:22:08;;;;;;;17.60;9.98;;;;;;;;;;5022840;28;20091;-68
2021/09/01 03:24:33;;;;;;;21.95;10.18;;;;;;;;;;5026581;28;20033;-68
2021/09/01 03:26:58;;;;;;;16.90;9.73;;;;;;;;;;5027473;28;20021;-69
2021/09/01 03:29:23;;;;;;;14.40;8.85;;;;;;;;;;5022500;28;20053;-68
2021/09/01 03:31:48;;;;;;;18.58;9.10;;;;;;;;;;5013176;28;20030;-68
2021/09/01 03:34:14;;;;;;;16.98;10.00;;;;;;;;;;5019878;28;20029;-68
2021/09/01 03:36:39;;;;;;;15.45;9.60;;;;;;;;;;5023949;28;20181;-67
2021/09/01 03:39:04;;;;;;;13.38;8.13;;;;;;;;;;5025932;28;20060;-69
2021/09/01 03:41:29;;;;;;;13.15;7.95;;;;;;;;;;5021802;28;20303;-67
2021/09/01 03:43:54;;;;;;;14.23;8.63;;;;;;;;;;5023588;28;20135;-69
2021/09/01 03:46:19;;;;;;;15.70;9.55;;;;;;;;;;5022604;28;20014;-67
2021/09/01 03:48:45;;;;;;;13.85;8.63;;;;;;;;;;5023665;28;20347;-68
2021/09/01 03:51:10;;;;;;;13.38;7.90;;;;;;;;;;5023749;28;20128;-68
2021/09/01 03:53:35;;;;;;;15.50;8.15;;;;;;;;;;5028827;28;20033;-69
2021/09/01 03:56:00;;;;;;;15.30;8.73;;;;;;;;;;5028270;28;20074;-68
2021/09/01 03:58:25;;;;;;;14.20;8.27;;;;;;;;;;5026846;28;20116;-68
2021/09/01 04:00:51;;;;;;;14.32;8.45;;;;;;;;;;5029120;28;20469;-68
2021/09/01 04:03:16;;;;;;;14.05;8.25;;;;;;;;;;5029555;28;20025;-69
2021/09/01 04:05:41;;;;;;;12.70;7.55;;;;;;;;;;5025081;28;20022;-68
2021/09/01 04:08:06;;;;;;;13.13;7.53;;;;;;;;;;5025064;28;20078;-69
2021/09/01 04:10:31;;;;;;;11.57;6.78;;;;;;;;;;5026973;28;20381;-68
2021/09/01 04:12:57;;;;;;;15.82;7.72;;;;;;;;;;5028527;28;20025;-67
2021/09/01 04:15:22;;;;;;;13.90;7.55;;;;;;;;;;5021714;28;20068;-69
2021/09/01 04:17:47;;;;;;;11.93;7.88;;;;;;;;;;5025533;28;20033;-70
2021/09/01 04:20:12;;;;;;;11.02;6.95;;;;;;;;;;5024994;28;20084;-69
2021/09/01 04:22:37;;;;;;;14.38;7.38;;;;;;;;;;5018117;28;20026;-68
2021/09/01 04:25:03;;;;;;;11.90;6.43;;;;;;;;;;5024683;28;20036;-68
2021/09/01 04:27:28;;;;;;;9.52;5.95;;;;;;;;;;5028982;28;20017;-69
2021/09/01 04:29:53;;;;;;;10.88;6.03;;;;;;;;;;5027449;28;20029;-68
2021/09/01 04:32:19;;;;;;;10.10;5.88;;;;;;;;;;5019560;28;20529;-69
2021/09/01 04:34:44;;;;;;;8.38;5.93;;;;;;;;;;5019272;28;20055;-69
2021/09/01 04:37:09;;;;;;;9.77;5.53;;;;;;;;;;5024314;28;20033;-69
2021/09/01 04:39:34;;;;;;;8.93;5.85;;;;;;;;;;5023733;28;20077;-69
2021/09/01 04:41:59;;;;;;;13.00;6.18;;;;;;;;;;5028973;28;20039;-69
2021/09/01 04:44:25;;;;;;;8.77;5.32;;;;;;;;;;5029099;28;20044;-69
2021/09/01 04:46:50;;;;;;;9.85;5.72;;;;;;;;;;5022697;28;20014;-68
2021/09/01 04:49:15;;;;;;;10.02;6.43;;;;;;;;;;5026652;28;20060;-69
2021/09/01 04:51:40;;;;;;;9.68;6.03;;;;;;;;;;5025243;28;20060;-69
2021/09/01 04:54:05;;;;;;;13.43;6.50;;;;;;;;;;5027857;28;20116;-68
2021/09/01 04:56:31;;;;;;;15.00;6.57;;;;;;;;;;5021736;28;20060;-68
2021/09/01 04:58:56;;;;;;;12.38;6.90;;;;;;;;;;5022243;28;20366;-69
2021/09/01 05:01:21;;;;;;;10.90;6.32;;;;;;;;;;5023827;28;20108;-68
2021/09/01 05:03:46;;;;;;;11.07;6.40;;;;;;;;;;5022754;28;20052;-68
2021/09/01 05:06:11;;;;;;;10.30;6.18;;;;;;;;;;5026981;28;20021;-68
2021/09/01 05:08:37;;;;;;;10.77;6.18;;;;;;;;;;5024199;28;20055;-69
2021/09/01 05:11:02;;;;;;;10.93;6.65;;;;;;;;;;5027537;28;20053;-67
2021/09/01 05:13:27;;;;;;;11.15;6.13;;;;;;;;;;5024971;28;20381;-70
2021/09/01 05:15:52;;;;;;;10.15;6.22;;;;;;;;;;5028500;28;20024;-69
2021/09/01 05:18:17;;;;;;;10.27;5.53;;;;;;;;;;5027574;28;20501;-68
2021/09/01 05:20:43;;;;;;;9.80;5.63;;;;;;;;;;5020478;28;21752;-69
2021/09/01 05:23:09;;;;;;;9.80;6.32;;;;;;;;;;5022653;28;20022;-68
2021/09/01 05:25:51;;;;;;;10.43;6.20;;;;;;;;;;5027806;28;20455;-68
2021/09/01 05:28:17;;;;;;;9.55;5.45;;;;;;;;;;5018105;28;20072;-69
2021/09/01 05:30:45;;;;;;;9.98;6.00;;;;;;;;;;5022501;28;20021;-68
2021/09/01 05:33:12;;;;;;;15.25;6.07;;;;;;;;;;5020227;28;20018;-68
2021/09/01 05:35:37;;;;;;;8.50;4.90;;;;;;;;;;5025385;28;20021;-69
2021/09/01 05:38:03;;;;;;;11.68;4.72;;;;;;;;;;5021827;28;20025;-69
2021/09/01 05:40:29;;;;;;;6.70;4.22;;;;;;;;;;5026667;28;20076;-69
2021/09/01 05:42:55;;;;;;;6.72;4.30;;;;;;;;;;5021554;28;20028;-69
2021/09/01 05:45:20;;;;;;;5.63;3.92;;;;;;;;;;5020758;28;20143;-69
2021/09/01 05:47:46;;;;;;;5.82;4.20;;;;;;;;;;5027436;28;20036;-69
2021/09/01 05:50:11;;;;;;;5.97;3.45;;;;;;;;;;5026200;28;20021;-69
2021/09/01 05:52:37;;;;;;;7.07;3.75;;;;;;;;;;5028051;28;20110;-68
2021/09/01 05:55:08;;;;;;;5.50;3.45;;;;;;;;;;5022212;28;20087;-68
2021/09/01 05:57:35;;;;;;;4.20;3.03;;;;;;;;;;5023550;28;20026;-68
2021/09/01 06:00:03;;;;;;;4.47;3.13;;;;;;;;;;5027165;28;20084;-67
2021/09/01 06:02:38;;;;;;;5.93;3.05;;;;;;;;;;5023860;28;20025;-69
2021/09/01 06:05:04;;;;;;;3.65;2.75;;;;;;;;;;5025653;28;20033;-68
2021/09/01 06:07:30;;;;;;;4.18;2.97;;;;;;;;;;5022766;28;20037;-67
2021/09/01 06:09:57;;;;;;;5.43;3.10;;;;;;;;;;5023151;28;20018;-67
2021/09/01 06:12:25;;;;;;;6.35;3.33;;;;;;;;;;5022402;28;20022;-68
2021/09/01 06:14:50;;;;;;;4.05;2.90;;;;;;;;;;5023089;28;20025;-67
2021/09/01 06:17:15;;;;;;;4.13;2.70;;;;;;;;;;5021052;28;20026;-69
2021/09/01 06:19:40;;;;;;;5.10;3.38;;;;;;;;;;5027525;28;20723;-68
2021/09/01 06:22:06;;;;;;;6.17;3.43;;;;;;;;;;5024662;28;20076;-67
2021/09/01 06:24:32;;;;;;;5.82;3.95;;;;;;;;;;5019120;28;20294;-67
2021/09/01 06:26:57;;;;;;;6.28;4.15;;;;;;;;;;5020915;28;20436;-68
2021/09/01 06:29:22;;;;;;;7.15;4.20;;;;;;;;;;5021872;28;20029;-70
2021/09/01 06:31:48;;;;;;;6.90;3.92;;;;;;;;;;5027703;28;20057;-68
2021/09/01 06:34:13;;;;;;;5.55;3.40;;;;;;;;;;5023600;28;20114;-68
2021/09/01 06:36:38;;;;;;;8.47;4.10;;;;;;;;;;5022515;28;20068;-69
2021/09/01 06:39:03;;;;;;;7.47;4.37;;;;;;;;;;5028083;28;20049;-61
2021/09/01 06:41:28;;;;;;;6.30;4.60;;;;;;;;;;5031383;28;20718;-62
2021/09/01 06:43:53;;;;;;;6.00;4.15;;;;;;;;;;5027969;28;20297;-61
2021/09/01 06:46:19;;;;;;;10.18;6.28;;;;;;;;;;5030722;28;20097;-62
2021/09/01 06:48:44;;;;;;;9.50;5.45;;;;;;;;;;5031481;28;20096;-61
2021/09/01 06:51:09;;;;;;;8.60;5.10;;;;;;;;;;5035897;28;20033;-61
2021/09/01 06:53:34;;;;;;;9.23;4.90;;;;;;;;;;5031208;28;20300;-62
2021/09/01 06:56:00;;;;;;;10.93;6.33;;;;;;;;;;5023270;28;20030;-61
2021/09/01 06:58:25;;;;;;;8.82;5.63;;;;;;;;;;5027450;28;20300;-62
2021/09/01 07:00:50;;;;;;;9.38;5.47;;;;;;;;;;5029891;28;20473;-62
2021/09/01 07:03:15;;;;;;;10.52;6.35;;;;;;;;;;5027191;28;20021;-61
2021/09/01 07:05:41;;;;;;;10.40;6.25;;;;;;;;;;5031698;28;20049;-62
2021/09/01 07:08:09;;;;;;;8.53;6.13;;;;;;;;;;5030914;28;20049;-61
2021/09/01 07:10:34;;;;;;;12.70;7.00;;;;;;;;;;5031196;28;20264;-60
2021/09/01 07:13:00;;;;;;;11.75;6.72;;;;;;;;;;5025244;28;20048;-61
2021/09/01 07:15:25;;;;;;;10.97;6.47;;;;;;;;;;5019362;28;20401;-60
2021/09/01 07:17:50;;;;;;;9.87;5.97;;;;;;;;;;5018052;28;20335;-62
2021/09/01 07:20:15;;;;;;;11.50;6.32;;;;;;;;;;5018291;28;20605;-62
2021/09/01 07:22:41;;;;;;;9.13;6.05;;;;;;;;;;5028657;28;20040;-61
2021/09/01 07:25:07;;;;;;;11.60;6.13;;;;;;;;;;5022633;28;20030;-61
2021/09/01 07:27:32;;;;;;;11.07;6.43;;;;;;;;;;5026863;28;20403;-61
2021/09/01 07:29:57;;;;;;;11.30;6.45;;;;;;;;;;5030275;28;20132;-61
2021/09/01 07:32:23;;;;;;;9.77;6.50;;;;;;;;;;5025134;28;20025;-62
2021/09/01 07:34:48;;;;;;;10.27;6.20;;;;;;;;;;5015902;28;20269;-61
2021/09/01 07:37:13;;;;;;;9.55;6.18;;;;;;;;;;5017910;28;20128;-62
2021/09/01 07:39:39;;;;;;;11.15;6.95;;;;;;;;;;5018962;28;20070;-62
2021/09/01 07:42:04;;;;;;;9.88;6.38;;;;;;;;;;5020325;28;20022;-61
2021/09/01 07:44:29;;;;;;;11.30;6.45;;;;;;;;;;5018758;28;20029;-61
2021/09/01 07:46:54;;;;;;;9.98;5.88;;;;;;;;;;5019480;28;20053;-62
2021/09/01 07:49:20;;;;;;;14.27;6.40;;;;;;;;;;5020820;28;20453;-61
2021/09/01 07:51:47;;;;;;;10.87;5.97;;;;;;;;;;5014350;28;20340;-60
2021/09/01 07:54:12;;;;;;;9.32;5.85;;;;;;;;;;5018768;28;20598;-61
2021/09/01 07:56:37;;;;;;;9.70;5.40;;;;;;;;;;5032555;28;20032;-61
2021/09/01 07:59:03;;;;;;;9.48;6.38;;;;;;;;;;5025841;28;20300;-62
2021/09/01 08:01:28;;;;;;;12.23;6.90;;;;;;;;;;5029399;28;20028;-62
2021/09/01 08:03:53;;;;;;;9.15;6.25;;;;;;;;;;5026961;28;20105;-61
2021/09/01 08:06:18;;;;;;;8.87;5.60;;;;;;;;;;5028791;28;20028;-61
2021/09/01 08:08:43;;;;;;;11.77;5.67;;;;;;;;;;5028322;28;20293;-62
2021/09/01 08:11:08;;;;;;;10.50;6.27;;;;;;;;;;5028221;28;20760;-61
2021/09/01 08:13:34;;;;;;;12.33;6.20;;;;;;;;;;5029545;28;20264;-63
2021/09/01 08:15:59;;;;;;;8.40;6.30;;;;;;;;;;5025545;28;20849;-62
2021/09/01 08:18:24;;;;;;;10.80;6.90;;;;;;;;;;5022019;28;20037;-63
2021/09/01 08:20:49;;;;;;;10.60;6.72;;;;;;;;;;5027530;28;20731;-61
2021/09/01 08:23:15;;;;;;;12.88;6.68;;;;;;;;;;5016209;28;20028;-61
2021/09/01 08:25:40;;;;;;;9.85;6.13;;;;;;;;;;5028256;28;20044;-62
2021/09/01 08:28:05;;;;;;;11.65;6.88;;;;;;;;;;5023044;28;20029;-61
2021/09/01 08:30:30;;;;;;;10.68;5.10;;;;;;;;;;5028140;28;20085;-62
2021/09/01 08:32:55;;;;;;;8.77;6.15;;;;;;;;;;5026953;28;20029;-62
2021/09/01 08:35:21;;;;;;;8.90;5.32;;;;;;;;;;5028497;28;20536;-61
2021/09/01 08:37:48;;;;;;;9.40;5.80;;;;;;;;;;5028247;28;20540;-63
2021/09/01 08:40:13;;;;;;;9.40;5.85;;;;;;;;;;5027637;28;20186;-62
2021/09/01 08:42:38;;;;;;;11.60;5.95;;;;;;;;;;5024596;28;20057;-63
2021/09/01 08:45:04;;;;;;;11.85;6.20;;;;;;;;;;5026044;28;20366;-63
2021/09/01 08:47:30;;;;;;;7.97;6.05;;;;;;;;;;5024655;28;20511;-63
2021/09/01 08:49:57;;;;;;;9.20;6.47;;;;;;;;;;5022268;28;20079;-62
2021/09/01 08:52:22;;;;;;;8.68;5.10;;;;;;;;;;5024958;28;20451;-62
2021/09/01 08:54:48;;;;;;;7.40;5.25;;;;;;;;;;5028704;28;20021;-62
2021/09/01 08:57:13;;;;;;;10.07;6.63;;;;;;;;;;5028033;28;20033;-63
2021/09/01 08:59:38;;;;;;;9.10;6.60;;;;;;;;;;5028572;28;20045;-63
2021/09/01 09:02:03;;;;;;;11.05;5.97;;;;;;;;;;5028214;28;20499;-62
2021/09/01 09:04:30;;;;;;;8.88;5.30;;;;;;;;;;5028337;28;20465;-62
2021/09/01 09:06:56;;;;;;;10.88;6.43;;;;;;;;;;5028391;28;20053;-63
2021/09/01 09:09:22;;;;;;;9.32;4.90;;;;;;;;;;5022728;28;20401;-63
2021/09/01 09:11:48;;;;;;;8.20;5.20;;;;;;;;;;5028353;28;20049;-62
2021/09/01 09:14:19;;;;;;;8.90;5.72;;;;;;;;;;5028412;28;20045;-62
2021/09/01 09:16:45;;;;;;;7.72;4.95;;;;;;;;;;5022541;28;20096;-63
2021/09/01 09:19:11;;;;;;;11.32;5.63;;;;;;;;;;5028447;28;20132;-63
2021/09/01 09:21:36;;;;;;;8.35;5.50;;;;;;;;;;5028465;28;20032;-62
2021/09/01 09:24:16;;;;;;;8.10;5.28;;;;;;;;;;5028534;28;20045;-63
2021/09/01 09:26:42;;;;;;;11.48;5.75;;;;;;;;;;5029211;28;20108;-62
2021/09/01 09:29:10;;;;;;;7.20;4.95;;;;;;;;;;5028240;28;20032;-63
2021/09/01 09:31:36;;;;;;;7.03;4.63;;;;;;;;;;5028654;28;20033;-63
2021/09/01 09:34:05;;;;;;;7.70;5.03;;;;;;;;;;5028414;28;20396;-63
2021/09/01 09:36:30;;;;;;;6.73;4.57;;;;;;;;;;5028875;28;20064;-63
2021/09/01 09:38:56;;;;;;;9.27;5.32;;;;;;;;;;5028950;28;20080;-63
2021/09/01 09:41:24;;;;;;;7.80;4.93;;;;;;;;;;5028103;28;20041;-64
2021/09/01 09:43:53;;;;;;;9.43;5.07;;;;;;;;;;5021745;28;20268;-63
2021/09/01 09:46:19;;;;;;;6.35;4.07;;;;;;;;;;5022094;28;20334;-62
2021/09/01 09:48:45;;;;;;;9.10;4.35;;;;;;;;;;5021512;28;20079;-63
2021/09/01 09:51:14;;;;;;;6.32;4.22;;;;;;;;;;5028423;28;20022;-63
2021/09/01 09:53:43;;;;;;;7.28;4.75;;;;;;;;;;5028579;28;20018;-62
2021/09/01 09:56:15;;;;;;;5.95;4.07;;;;;;;;;;5015045;28;20153;-62
2021/09/01 09:58:43;;;;;;;6.88;4.40;;;;;;;;;;5022244;28;20029;-63
2021/09/01 10:01:09;;;;;;;6.85;4.03;;;;;;;;;;5028609;28;20021;-62
2021/09/01 10:03:35;;;;;;;7.75;5.25;;;;;;;;;;5028687;28;20544;-63
2021/09/01 10:06:01;;;;;;;5.53;3.50;;;;;;;;;;5030612;28;20112;-63
2021/09/01 10:08:26;;;;;;;6.38;4.03;;;;;;;;;;5032331;28;20014;-64
2021/09/01 10:10:52;;;;;;;6.18;4.95;;;;;;;;;;5032179;28;20765;-62
2021/09/01 10:13:17;;;;;;;7.30;5.00;;;;;;;;;;5032199;28;20025;-63
2021/09/01 10:15:43;;;;;;;6.90;4.20;;;;;;;;;;5032356;28;20024;-62
2021/09/01 10:18:09;;;;;;;6.90;4.70;;;;;;;;;;5031978;28;20292;-62
2021/09/01 10:20:38;;;;;;;8.45;5.13;;;;;;;;;;5035827;28;20036;-62
2021/09/01 10:23:06;;;;;;;7.07;4.45;;;;;;;;;;5031618;28;20087;-63
2021/09/01 10:25:36;;;;;;;8.80;4.57;;;;;;;;;;5032128;28;20534;-63
2021/09/01 10:28:27;;;;;;;7.75;4.22;;;;;;;;;;5032032;28;20018;-62
2021/09/01 10:31:01;;;;;;;8.00;4.35;;;;;;;;;;5030650;28;20083;-62
2021/09/01 10:33:35;;;;;;;8.10;4.55;;;;;;;;;;5032061;28;20022;-62
2021/09/01 10:36:20;;;;;;;7.13;4.25;;;;;;;;;;5031632;28;20592;-62
2021/09/01 10:38:45;;;;;;;8.02;4.78;;;;;;;;;;5031723;28;20148;-62
2021/09/01 10:41:11;;;;;;;8.70;5.03;;;;;;;;;;5031314;28;20465;-63
2021/09/01 10:43:36;;;;;;;7.57;4.93;;;;;;;;;;5031607;28;20261;-63
2021/09/01 10:46:02;;;;;;;7.40;4.07;;;;;;;;;;5031654;28;20022;-62
2021/09/01 10:48:27;;;;;;;8.13;4.32;;;;;;;;;;5031689;28;20025;-63
2021/09/01 10:50:52;;;;;;;6.95;4.20;;;;;;;;;;5039211;28;20056;-63
2021/09/01 10:53:23;;;;;;;7.40;4.07;;;;;;;;;;5031303;28;20017;-62
2021/09/01 10:55:50;;;;;;;9.43;4.80;;;;;;;;;;5031532;28;20073;-63
2021/09/01 10:58:19;;;;;;;7.30;4.60;;;;;;;;;;5031411;28;20024;-62
2021/09/01 11:00:50;;;;;;;7.70;5.05;;;;;;;;;;5031189;28;20028;-63
2021/09/01 11:03:23;;;;;;;8.60;5.50;;;;;;;;;;5030824;28;20021;-63
2021/09/01 11:05:49;;;;;;;7.35;5.03;;;;;;;;;;5031113;28;20472;-63
2021/09/01 11:08:14;;;;;;;7.60;4.55;;;;;;;;;;5031123;28;20056;-64
2021/09/01 11:10:53;;;;;;;8.13;4.55;;;;;;;;;;5030976;28;20084;-62
2021/09/01 11:13:18;;;;;;;6.90;4.70;;;;;;;;;;5030870;28;20072;-63
2021/09/01 11:15:45;;;;;;;8.50;5.37;;;;;;;;;;5030894;28;20026;-63
2021/09/01 11:18:10;;;;;;;13.55;4.47;;;;;;;;;;5029457;28;20336;-64
2021/09/01 11:20:35;;;;;;;7.67;4.30;;;;;;;;;;5029273;28;20128;-63
2021/09/01 11:23:02;;;;;;;8.63;4.38;;;;;;;;;;5031013;28;20303;-62
2021/09/01 11:25:27;;;;;;;7.20;4.05;;;;;;;;;;5031533;28;20026;-63
2021/09/01 11:27:56;;;;;;;6.40;4.05;;;;;;;;;;5030762;28;20026;-63
2021/09/01 11:30:22;;;;;;;6.60;4.40;;;;;;;;;;5031061;28;20083;-63
2021/09/01 11:32:52;;;;;;;7.13;4.05;;;;;;;;;;5030743;28;20268;-62
2021/09/01 11:35:20;;;;;;;7.35;3.90;;;;;;;;;;5030395;28;20038;-63
2021/09/01 11:37:59;;;;;;;7.75;4.13;;;;;;;;;;5030986;28;20370;-63
2021/09/01 11:40:35;;;;;;;6.57;3.95;;;;;;;;;;5030208;28;20052;-63
2021/09/01 11:43:00;;;;;;;5.97;3.75;;;;;;;;;;5030326;28;20040;-63
2021/09/01 11:45:26;;;;;;;6.75;3.35;;;;;;;;;;5030555;28;20029;-63
2021/09/01 11:47:51;;;;;;;8.43;3.50;;;;;;;;;;5029328;28;20105;-63
2021/09/01 11:50:17;;;;;;;6.35;3.70;;;;;;;;;;5030715;28;20440;-63
2021/09/01 11:52:43;;;;;;;8.73;4.28;;;;;;;;;;5030426;28;20021;-63
2021/09/01 11:55:08;;;;;;;8.02;3.78;;;;;;;;;;5030210;28;20025;-63
2021/09/01 11:57:33;;;;;;;6.78;3.78;;;;;;;;;;5030160;28;20017;-62
2021/09/01 11:59:59;;;;;;;7.03;3.33;;;;;;;;;;5029838;28;20197;-63
2021/09/01 12:02:26;;;;;;;9.25;3.50;;;;;;;;;;5029904;28;20079;-63
2021/09/01 12:04:52;;;;;;;5.93;3.55;;;;;;;;;;5030227;28;20034;-62
2021/09/01 12:07:24;;;;;;;5.85;3.67;;;;;;;;;;5029953;28;20159;-62
2021/09/01 12:10:01;;;;;;;5.25;3.80;;;;;;;;;;5030047;28;20018;-63
2021/09/01 12:12:33;;;;;;;6.82;4.30;;;;;;;;;;5030082;28;20501;-62
2021/09/01 12:15:10;;;;;;;6.88;3.83;;;;;;;;;;5029913;28;20376;-63
2021/09/01 12:17:35;;;;;;;6.35;4.32;;;;;;;;;;5029866;28;20049;-63
2021/09/01 12:20:01;;;;;;;5.93;3.53;;;;;;;;;;5032364;28;20059;-62
2021/09/01 12:22:34;;;;;;;6.20;3.60;;;;;;;;;;5029829;28;20275;-63
2021/09/01 12:25:00;;;;;;;6.70;3.83;;;;;;;;;;5029895;28;20334;-63
2021/09/01 12:27:25;;;;;;;7.00;4.57;;;;;;;;;;5030076;28;20084;-64
2021/09/01 12:29:51;;;;;;;6.00;3.50;;;;;;;;;;5029489;28;20077;-63
2021/09/01 12:32:20;;;;;;;7.50;3.83;;;;;;;;;;5029743;28;20260;-63
2021/09/01 12:34:51;;;;;;;7.60;3.90;;;;;;;;;;5029715;28;20036;-62
2021/09/01 12:37:22;;;;;;;5.25;3.42;;;;;;;;;;5029214;28;20052;-63
2021/09/01 12:39:50;;;;;;;7.40;3.80;;;;;;;;;;5029196;28;20053;-62
2021/09/01 12:42:26;;;;;;;5.75;3.92;;;;;;;;;;5029796;28;20018;-62
2021/09/01 12:44:54;;;;;;;6.22;4.53;;;;;;;;;;5029662;28;20385;-62
2021/09/01 12:47:19;;;;;;;6.43;3.85;;;;;;;;;;5029314;28;20035;-62
2021/09/01 12:49:47;;;;;;;7.03;5.07;;;;;;;;;;5028134;28;20132;-64
2021/09/01 12:52:13;;;;;;;11.15;4.72;;;;;;;;;;5029267;28;20024;-62
2021/09/01 12:54:38;;;;;;;5.88;3.80;;;;;;;;;;5028939;28;20025;-62
2021/09/01 12:57:03;;;;;;;5.97;3.63;;;;;;;;;;5029562;28;20100;-63
2021/09/01 12:59:34;;;;;;;5.93;3.95;;;;;;;;;;5029292;28;20036;-64
2021/09/01 13:01:59;;;;;;;9.05;3.67;;;;;;;;;;5029087;28;20021;-62
2021/09/01 13:04:24;;;;;;;6.47;3.70;;;;;;;;;;5029160;28;20538;-62
2021/09/01 13:06:50;;;;;;;6.90;3.28;;;;;;;;;;5028491;28;20544;-62
2021/09/01 13:09:15;;;;;;;8.30;3.67;;;;;;;;;;5028915;28;20028;-63
2021/09/01 13:11:40;;;;;;;5.17;3.13;;;;;;;;;;5029072;28;20079;-63
2021/09/01 13:14:05;;;;;;;6.57;2.90;;;;;;;;;;5029184;28;20614;-63
2021/09/01 13:16:30;;;;;;;6.63;3.13;;;;;;;;;;5028521;28;20356;-63
2021/09/01 13:18:55;;;;;;;5.70;3.20;;;;;;;;;;5028662;28;20303;-63
2021/09/01 13:21:21;;;;;;;5.38;2.92;;;;;;;;;;5027383;28;20303;-63
2021/09/01 13:23:46;;;;;;;6.13;3.53;;;;;;;;;;5028972;28;20072;-63
2021/09/01 13:26:11;;;;;;;6.43;3.63;;;;;;;;;;5028279;28;20018;-62
2021/09/01 13:28:36;;;;;;;7.10;4.37;;;;;;;;;;5027437;28;20322;-63
2021/09/01 13:31:01;;;;;;;5.55;3.15;;;;;;;;;;5028278;28;20256;-63
2021/09/01 13:33:26;;;;;;;6.40;3.00;;;;;;;;;;5028292;28;20017;-62
2021/09/01 13:35:52;;;;;;;4.93;3.23;;;;;;;;;;5028501;28;20306;-63
2021/09/01 13:38:17;;;;;;;5.23;3.30;;;;;;;;;;5028650;28;20252;-62
2021/09/01 13:40:42;;;;;;;8.80;3.92;;;;;;;;;;5030031;28;20280;-65
2021/09/01 13:43:07;;;;;;;5.83;3.20;;;;;;;;;;5032730;28;20025;-62
2021/09/01 13:45:33;;;;;;;4.90;2.90;;;;;;;;;;5032761;28;20295;-63
2021/09/01 13:47:58;;;;;;;5.32;3.40;;;;;;;;;;5025682;28;20013;-62
2021/09/01 13:50:23;;;;;;;5.65;3.33;;;;;;;;;;5031836;28;20043;-63
2021/09/01 13:52:48;;;;;;;4.30;2.70;;;;;;;;;;5032701;28;20028;-64
2021/09/01 13:55:13;;;;;;;6.10;3.93;;;;;;;;;;5032645;28;20589;-62
2021/09/01 13:57:40;;;;;;;5.30;3.07;;;;;;;;;;5032364;28;20378;-62
2021/09/01 14:00:07;;;;;;;9.63;3.60;;;;;;;;;;5032225;28;20299;-63
2021/09/01 14:02:32;;;;;;;5.35;3.47;;;;;;;;;;5031972;28;20491;-63
2021/09/01 14:04:58;;;;;;;8.40;3.53;;;;;;;;;;5032300;28;20068;-63
2021/09/01 14:07:23;;;;;;;7.20;3.55;;;;;;;;;;5032061;28;20014;-63
2021/09/01 14:09:48;;;;;;;5.70;3.83;;;;;;;;;;5032421;28;20388;-62
2021/09/01 14:12:13;;;;;;;5.67;3.83;;;;;;;;;;5031981;28;20260;-63
2021/09/01 14:14:39;;;;;;;7.13;4.00;;;;;;;;;;5032547;28;20830;-62
2021/09/01 14:17:04;;;;;;;5.82;4.05;;;;;;;;;;5031742;28;20264;-62
2021/09/01 14:19:30;;;;;;;6.18;4.10;;;;;;;;;;5031796;28;20302;-62
2021/09/01 14:21:55;;;;;;;6.43;4.30;;;;;;;;;;5031637;28;20030;-61
2021/09/01 14:24:21;;;;;;;5.35;3.53;;;;;;;;;;5031948;28;20044;-63
2021/09/01 14:26:46;;;;;;;6.78;4.30;;;;;;;;;;5031761;28;20376;-62
2021/09/01 14:29:11;;;;;;;5.47;3.33;;;;;;;;;;5031500;28;20076;-63